Time;durP1;ratioP1;P1;durP2;ratioP2;P2;SDS_P1;SDS_P2;PMS_P1;PMS_P2;Temp;Humidity;BMP_temperature;BMP_pressure;BME280_temperature;BME280_humidity;BME280_pressure;Samples;Min_cycle;Max_cycle;Signal;HPM_P1;HPM_P2
2023/06/10 00:01:57;;;;;;;7.13;3.53;;;19.00;99.30;;;;;;6187294;23;20025;-74
2023/06/10 00:04:23;;;;;;;8.48;4.07;;;19.00;99.50;;;;;;6189513;23;20072;-74
2023/06/10 00:06:49;;;;;;;8.60;3.45;;;18.90;99.50;;;;;;6187172;23;20017;-73
2023/06/10 00:09:15;;;;;;;7.07;3.72;;;18.80;99.60;;;;;;6188718;23;20021;-73
2023/06/10 00:11:42;;;;;;;11.77;4.10;;;18.90;99.80;;;;;;6188243;23;20039;-74
2023/06/10 00:14:08;;;;;;;5.25;3.55;;;18.90;99.70;;;;;;6187472;23;20017;-74
2023/06/10 00:16:34;;;;;;;7.03;4.00;;;18.80;99.90;;;;;;6189542;23;20024;-74
2023/06/10 00:19:02;;;;;;;6.03;3.72;;;18.80;99.90;;;;;;6187045;23;20021;-73
2023/06/10 00:21:28;;;;;;;9.35;3.78;;;18.80;99.90;;;;;;6189023;23;20021;-73
2023/06/10 00:23:55;;;;;;;6.97;3.65;;;18.70;99.90;;;;;;6187178;23;20574;-73
2023/06/10 00:26:22;;;;;;;6.55;4.15;;;18.60;99.90;;;;;;6188232;23;20021;-75
2023/06/10 00:28:47;;;;;;;7.85;3.92;;;18.60;99.90;;;;;;6188229;23;20013;-74
2023/06/10 00:31:13;;;;;;;7.35;3.78;;;18.70;99.90;;;;;;6187505;23;20110;-73
2023/06/10 00:33:39;;;;;;;6.97;4.35;;;18.60;99.90;;;;;;6189216;23;20072;-74
2023/06/10 00:36:05;;;;;;;9.38;4.15;;;18.60;99.90;;;;;;6186958;23;20029;-73
2023/06/10 00:38:31;;;;;;;8.55;4.10;;;18.50;99.90;;;;;;6188691;23;20032;-74
2023/06/10 00:40:57;;;;;;;7.55;3.90;;;18.50;99.90;;;;;;6187221;23;20306;-72
2023/06/10 00:43:23;;;;;;;6.22;4.10;;;18.50;99.90;;;;;;6188393;23;20025;-73
2023/06/10 00:45:51;;;;;;;10.23;4.55;;;18.50;99.90;;;;;;6187771;23;20063;-73
2023/06/10 00:48:17;;;;;;;7.22;4.40;;;18.50;99.90;;;;;;6187679;23;20238;-72
2023/06/10 00:50:44;;;;;;;5.57;3.25;;;18.40;99.90;;;;;;6188856;23;20017;-73
2023/06/10 00:53:10;;;;;;;7.05;4.13;;;18.40;99.90;;;;;;6186412;23;20025;-73
2023/06/10 00:55:36;;;;;;;7.28;3.80;;;18.30;99.90;;;;;;6188891;23;20336;-73
2023/06/10 00:58:03;;;;;;;9.98;4.15;;;18.30;99.90;;;;;;6187200;23;20021;-73
2023/06/10 01:00:29;;;;;;;7.03;3.90;;;18.30;99.90;;;;;;6188703;23;20064;-74
2023/06/10 01:02:55;;;;;;;6.47;4.13;;;18.20;99.90;;;;;;6187670;23;20024;-73
2023/06/10 01:05:22;;;;;;;8.00;4.20;;;18.30;99.90;;;;;;6187762;23;20032;-73
2023/06/10 01:08:11;;;;;;;10.32;4.75;;;18.20;99.90;;;;;;6188406;23;20021;-74
2023/06/10 01:10:52;;;;;;;10.25;4.60;;;18.10;99.90;;;;;;6170849;23;20043;-73
2023/06/10 01:13:20;;;;;;;9.70;5.07;;;18.10;99.90;;;;;;6188673;23;20363;-74
2023/06/10 01:15:48;;;;;;;8.10;4.32;;;18.10;99.90;;;;;;6187172;23;20062;-74
2023/06/10 01:18:17;;;;;;;6.90;3.95;;;18.10;99.90;;;;;;6187614;23;20017;-73
2023/06/10 01:20:44;;;;;;;6.93;4.40;;;18.00;99.90;;;;;;6188165;23;20021;-73
2023/06/10 01:23:11;;;;;;;9.60;4.97;;;18.00;99.90;;;;;;6186184;23;20024;-73
2023/06/10 01:25:40;;;;;;;8.57;4.88;;;18.00;99.90;;;;;;6190064;23;20044;-72
2023/06/10 01:28:20;;;;;;;7.40;3.88;;;18.00;99.90;;;;;;6188981;23;20063;-74
2023/06/10 01:30:55;;;;;;;7.13;4.13;;;18.00;99.90;;;;;;6190792;23;20489;-73
2023/06/10 01:33:31;;;;;;;8.23;4.28;;;17.90;99.90;;;;;;6190881;23;20036;-73
2023/06/10 01:35:58;;;;;;;8.63;4.15;;;17.90;99.90;;;;;;6188118;23;20024;-73
2023/06/10 01:38:30;;;;;;;6.63;4.30;;;17.80;99.90;;;;;;6190393;23;20053;-73
2023/06/10 01:40:57;;;;;;;5.70;3.67;;;17.80;99.90;;;;;;6188206;23;20020;-73
2023/06/10 01:43:23;;;;;;;7.45;4.18;;;17.70;99.90;;;;;;6189221;23;20021;-73
2023/06/10 01:45:49;;;;;;;8.27;4.50;;;17.60;99.90;;;;;;6189871;23;20044;-73
2023/06/10 01:48:15;;;;;;;5.63;3.67;;;17.60;99.90;;;;;;6189399;23;20584;-73
2023/06/10 01:50:41;;;;;;;10.10;5.43;;;17.60;99.90;;;;;;6190856;23;20029;-73
2023/06/10 01:53:06;;;;;;;6.28;4.30;;;17.50;99.90;;;;;;6186385;23;20051;-73
2023/06/10 01:55:32;;;;;;;8.48;4.60;;;17.50;99.90;;;;;;6188383;23;20453;-73
2023/06/10 01:57:58;;;;;;;11.10;4.20;;;17.40;99.90;;;;;;6186309;23;20021;-73
2023/06/10 02:00:23;;;;;;;9.05;4.65;;;17.40;99.90;;;;;;6188334;23;20040;-73
2023/06/10 02:02:49;;;;;;;9.82;5.15;;;17.30;99.90;;;;;;6187066;23;20101;-73
2023/06/10 02:05:18;;;;;;;12.80;4.65;;;17.20;99.90;;;;;;6187130;23;20051;-73
2023/06/10 02:07:44;;;;;;;7.53;4.35;;;17.20;99.90;;;;;;6188705;23;20017;-72
2023/06/10 02:10:10;;;;;;;12.13;4.63;;;17.20;99.90;;;;;;6186434;23;20032;-73
2023/06/10 02:12:36;;;;;;;8.15;4.43;;;17.20;99.90;;;;;;6163127;23;20020;-73
2023/06/10 02:15:01;;;;;;;8.95;4.30;;;17.20;99.90;;;;;;6188298;23;20032;-73
2023/06/10 02:17:28;;;;;;;12.23;5.28;;;17.20;99.90;;;;;;6192575;23;20024;-74
2023/06/10 02:19:53;;;;;;;6.07;3.90;;;17.10;99.90;;;;;;6192517;23;20029;-73
2023/06/10 02:22:23;;;;;;;7.35;4.75;;;17.10;99.90;;;;;;6198552;23;20059;-72
2023/06/10 02:24:49;;;;;;;11.45;5.68;;;17.00;99.90;;;;;;6189558;23;20048;-72
2023/06/10 02:27:16;;;;;;;9.52;4.28;;;17.00;99.90;;;;;;6187654;23;20016;-74
2023/06/10 02:29:43;;;;;;;8.13;4.45;;;17.00;99.90;;;;;;6192700;23;20069;-72
2023/06/10 02:32:09;;;;;;;8.57;4.72;;;16.90;99.90;;;;;;6163418;23;20481;-73
2023/06/10 02:34:36;;;;;;;9.00;4.57;;;16.80;99.90;;;;;;6190451;23;20040;-72
2023/06/10 02:37:02;;;;;;;7.70;4.47;;;16.80;99.90;;;;;;6189171;23;20021;-73
2023/06/10 02:39:28;;;;;;;7.60;4.80;;;16.80;99.90;;;;;;6189584;23;20040;-73
2023/06/10 02:41:54;;;;;;;12.73;5.05;;;16.70;99.90;;;;;;6190100;23;20092;-72
2023/06/10 02:44:20;;;;;;;9.70;5.07;;;16.70;99.90;;;;;;6187616;23;20691;-73
2023/06/10 02:46:46;;;;;;;8.27;4.47;;;16.60;99.90;;;;;;6190536;23;20028;-72
2023/06/10 02:49:12;;;;;;;10.13;4.93;;;16.60;99.90;;;;;;6187494;23;20021;-72
2023/06/10 02:51:38;;;;;;;7.70;4.60;;;16.60;99.90;;;;;;6190224;23;20021;-72
2023/06/10 02:54:05;;;;;;;10.60;5.00;;;16.60;99.90;;;;;;6188577;23;20028;-72
2023/06/10 02:56:32;;;;;;;9.45;4.70;;;16.60;99.90;;;;;;6189171;23;20044;-72
2023/06/10 02:58:58;;;;;;;6.88;4.40;;;16.50;99.90;;;;;;6189448;23;20021;-72
2023/06/10 03:01:24;;;;;;;6.32;4.55;;;16.50;99.90;;;;;;6188032;23;20043;-72
2023/06/10 03:03:50;;;;;;;9.63;4.40;;;16.50;99.90;;;;;;6189620;23;20053;-73
2023/06/10 03:06:16;;;;;;;9.00;4.47;;;16.50;99.90;;;;;;6187962;23;20473;-73
2023/06/10 03:08:42;;;;;;;8.55;4.85;;;16.40;99.90;;;;;;6189808;23;20071;-73
2023/06/10 03:11:08;;;;;;;9.82;4.18;;;16.40;99.90;;;;;;6188225;23;20100;-73
2023/06/10 03:13:34;;;;;;;12.48;4.85;;;16.30;99.90;;;;;;6189034;23;20434;-72
2023/06/10 03:16:00;;;;;;;9.15;4.82;;;16.30;99.90;;;;;;6188931;23;20025;-72
2023/06/10 03:18:27;;;;;;;8.90;4.53;;;16.20;99.90;;;;;;6187943;23;20035;-72
2023/06/10 03:20:53;;;;;;;9.18;5.18;;;16.20;99.90;;;;;;6189961;23;20017;-72
2023/06/10 03:23:19;;;;;;;7.93;4.35;;;16.20;99.90;;;;;;6187666;23;20028;-72
2023/06/10 03:25:45;;;;;;;9.18;4.63;;;16.10;99.90;;;;;;6189417;23;20399;-72
2023/06/10 03:28:11;;;;;;;8.77;4.45;;;16.10;99.90;;;;;;6188107;23;20096;-73
2023/06/10 03:30:37;;;;;;;8.10;4.03;;;16.10;99.90;;;;;;6188781;23;20098;-72
2023/06/10 03:33:02;;;;;;;9.35;4.03;;;16.00;99.90;;;;;;6188711;23;20030;-73
2023/06/10 03:35:29;;;;;;;9.52;4.68;;;16.10;99.90;;;;;;6187810;23;20021;-72
2023/06/10 03:37:55;;;;;;;10.70;4.50;;;16.00;99.90;;;;;;6189424;23;20021;-72
2023/06/10 03:40:20;;;;;;;6.75;4.40;;;16.00;99.90;;;;;;6186354;23;20025;-73
2023/06/10 03:42:46;;;;;;;10.82;4.63;;;16.00;99.90;;;;;;6189046;23;20021;-73
2023/06/10 03:45:12;;;;;;;6.35;4.47;;;16.00;99.90;;;;;;6187618;23;20025;-73
2023/06/10 03:47:40;;;;;;;8.32;4.72;;;16.10;99.90;;;;;;6188640;23;20021;-72
2023/06/10 03:50:07;;;;;;;7.75;4.10;;;16.10;99.90;;;;;;6188259;23;20060;-72
2023/06/10 03:52:35;;;;;;;8.55;4.60;;;16.10;99.90;;;;;;6187701;23;20080;-72
2023/06/10 03:55:00;;;;;;;6.43;3.90;;;16.20;99.90;;;;;;6189225;23;20025;-75
2023/06/10 03:57:26;;;;;;;11.13;4.57;;;16.10;99.90;;;;;;6187300;23;20107;-73
2023/06/10 03:59:52;;;;;;;10.00;4.63;;;16.20;99.90;;;;;;6188934;23;20017;-73
2023/06/10 04:02:17;;;;;;;7.07;4.20;;;16.20;99.90;;;;;;6186970;23;20091;-73
2023/06/10 04:04:43;;;;;;;7.22;4.63;;;16.20;99.90;;;;;;6189139;23;20096;-72
2023/06/10 04:07:09;;;;;;;8.43;4.78;;;16.30;99.90;;;;;;6188225;23;20025;-74
2023/06/10 04:09:36;;;;;;;9.40;5.03;;;16.30;99.90;;;;;;6188367;23;20096;-73
2023/06/10 04:12:02;;;;;;;8.13;4.22;;;16.40;99.90;;;;;;6189204;23;20068;-73
2023/06/10 04:14:28;;;;;;;11.70;4.40;;;16.50;99.90;;;;;;6186597;23;20028;-73
2023/06/10 04:16:54;;;;;;;7.85;4.53;;;16.60;99.90;;;;;;6189166;23;20044;-73
2023/06/10 04:19:19;;;;;;;8.63;5.00;;;16.60;99.90;;;;;;6187082;23;20025;-73
2023/06/10 04:21:47;;;;;;;8.73;4.10;;;16.70;99.90;;;;;;6189130;23;20027;-74
2023/06/10 04:24:13;;;;;;;8.48;4.70;;;16.70;99.90;;;;;;6187349;23;20025;-73
2023/06/10 04:26:39;;;;;;;9.65;5.60;;;16.80;99.90;;;;;;6161578;23;20096;-74
2023/06/10 04:29:04;;;;;;;8.18;4.43;;;16.90;99.90;;;;;;6188441;23;20527;-73
2023/06/10 04:31:32;;;;;;;9.65;4.28;;;16.80;99.90;;;;;;6186702;23;20025;-73
2023/06/10 04:33:57;;;;;;;9.85;4.30;;;16.80;99.90;;;;;;6188755;23;20491;-73
2023/06/10 04:36:23;;;;;;;5.97;3.85;;;16.90;99.90;;;;;;6187092;23;20025;-74
2023/06/10 04:38:51;;;;;;;8.48;4.68;;;17.00;99.90;;;;;;6189242;23;20020;-72
2023/06/10 04:41:17;;;;;;;7.10;3.67;;;17.00;99.90;;;;;;6187822;23;20024;-72
2023/06/10 04:43:43;;;;;;;11.45;4.40;;;17.10;99.90;;;;;;6188024;23;20060;-73
2023/06/10 04:46:10;;;;;;;7.88;4.25;;;17.10;99.90;;;;;;6188663;23;20021;-73
2023/06/10 04:48:35;;;;;;;9.30;4.95;;;17.30;99.90;;;;;;6186709;23;20032;-73
2023/06/10 04:51:01;;;;;;;10.35;4.82;;;17.30;99.90;;;;;;6188891;23;20021;-74
2023/06/10 04:53:28;;;;;;;10.55;4.22;;;17.30;99.90;;;;;;6186491;23;20028;-72
2023/06/10 04:55:54;;;;;;;9.32;4.57;;;17.40;99.90;;;;;;6188529;23;20020;-73
2023/06/10 04:58:20;;;;;;;12.57;5.10;;;17.40;99.90;;;;;;6187294;23;20356;-73
2023/06/10 05:00:45;;;;;;;10.00;4.28;;;17.50;99.90;;;;;;6188607;23;20052;-73
2023/06/10 05:03:11;;;;;;;11.07;4.45;;;17.50;99.90;;;;;;6188711;23;20024;-73
2023/06/10 05:05:37;;;;;;;10.80;4.75;;;17.60;99.90;;;;;;6187471;23;20021;-72
2023/06/10 05:08:03;;;;;;;8.50;4.03;;;17.60;99.90;;;;;;6189883;23;20079;-72
2023/06/10 05:10:31;;;;;;;10.05;4.57;;;17.80;99.90;;;;;;6193449;23;20021;-74
2023/06/10 05:12:58;;;;;;;8.00;4.22;;;17.80;99.90;;;;;;6196443;23;20048;-72
2023/06/10 05:15:24;;;;;;;10.35;4.78;;;17.80;99.90;;;;;;6189524;23;20486;-72
2023/06/10 05:17:50;;;;;;;7.20;4.22;;;17.90;99.90;;;;;;6189700;23;20075;-72
2023/06/10 05:20:16;;;;;;;11.88;5.07;;;17.90;99.90;;;;;;6188739;23;20040;-73
2023/06/10 05:22:41;;;;;;;12.25;5.43;;;18.00;99.90;;;;;;6187419;23;20025;-73
2023/06/10 05:25:08;;;;;;;10.93;4.97;;;18.10;99.90;;;;;;6188704;23;20017;-73
2023/06/10 05:27:33;;;;;;;9.93;4.95;;;18.10;99.90;;;;;;6186251;23;20024;-73
2023/06/10 05:29:59;;;;;;;9.45;4.75;;;18.20;99.90;;;;;;6188865;23;20092;-73
2023/06/10 05:32:25;;;;;;;8.23;4.20;;;18.20;99.90;;;;;;6186932;23;20056;-74
2023/06/10 05:34:50;;;;;;;10.85;4.70;;;18.30;99.90;;;;;;6188083;23;20123;-73
2023/06/10 05:37:16;;;;;;;8.57;5.00;;;18.40;99.90;;;;;;6187813;23;20013;-72
2023/06/10 05:39:42;;;;;;;8.82;4.55;;;18.40;99.90;;;;;;6187320;23;20017;-73
2023/06/10 05:42:08;;;;;;;8.32;4.20;;;18.50;99.90;;;;;;6188606;23;20067;-74
2023/06/10 05:44:34;;;;;;;10.25;5.13;;;18.60;99.90;;;;;;6186298;23;20025;-74
2023/06/10 05:47:01;;;;;;;9.52;4.82;;;18.70;99.90;;;;;;6188488;23;20028;-74
2023/06/10 05:49:27;;;;;;;8.50;4.07;;;18.60;99.90;;;;;;6186200;23;20525;-74
2023/06/10 05:51:53;;;;;;;9.52;4.57;;;18.70;99.90;;;;;;6188105;23;20021;-74
2023/06/10 05:54:19;;;;;;;8.82;4.80;;;18.70;99.90;;;;;;6186940;23;20017;-74
2023/06/10 05:56:45;;;;;;;7.95;4.05;;;18.70;99.90;;;;;;6186881;23;20023;-74
2023/06/10 05:59:10;;;;;;;6.80;4.70;;;18.70;99.90;;;;;;6187753;23;20120;-73
2023/06/10 06:01:36;;;;;;;11.20;4.60;;;18.90;99.90;;;;;;6185936;23;20537;-74
2023/06/10 06:04:02;;;;;;;10.88;4.90;;;18.80;99.90;;;;;;6187518;23;20031;-73
2023/06/10 06:06:28;;;;;;;8.70;4.53;;;18.80;99.90;;;;;;6186065;23;20063;-74
2023/06/10 06:08:53;;;;;;;11.25;4.80;;;18.80;99.90;;;;;;6188000;23;20028;-74
2023/06/10 06:11:22;;;;;;;9.43;4.20;;;18.90;99.90;;;;;;6186450;23;20359;-74
2023/06/10 06:13:48;;;;;;;10.90;5.13;;;19.00;99.90;;;;;;6187106;23;20378;-74
2023/06/10 06:16:14;;;;;;;9.50;4.68;;;19.10;99.90;;;;;;6187667;23;20021;-73
2023/06/10 06:18:39;;;;;;;6.68;4.32;;;19.00;99.90;;;;;;6185926;23;20021;-74
2023/06/10 06:21:05;;;;;;;8.60;4.50;;;19.10;99.90;;;;;;6188197;23;20021;-73
2023/06/10 06:23:31;;;;;;;11.13;4.72;;;19.00;99.90;;;;;;6185759;23;20536;-74
2023/06/10 06:25:56;;;;;;;8.80;4.65;;;19.10;99.90;;;;;;6187526;23;20028;-74
2023/06/10 06:28:22;;;;;;;6.68;4.43;;;19.10;99.90;;;;;;6186297;23;20031;-74
2023/06/10 06:30:48;;;;;;;7.40;3.95;;;19.20;99.90;;;;;;6187471;23;20485;-73
2023/06/10 06:33:14;;;;;;;9.30;4.88;;;19.20;99.90;;;;;;6187305;23;20025;-74
2023/06/10 06:35:42;;;;;;;8.13;4.57;;;19.30;99.90;;;;;;6186101;23;20125;-73
2023/06/10 06:38:08;;;;;;;6.75;4.15;;;19.30;99.90;;;;;;6187705;23;20024;-73
2023/06/10 06:40:33;;;;;;;6.78;4.20;;;19.40;99.90;;;;;;6185450;23;20021;-72
2023/06/10 06:42:59;;;;;;;10.07;4.30;;;19.40;99.90;;;;;;6188244;23;20067;-73
2023/06/10 06:45:25;;;;;;;8.90;4.38;;;19.40;99.90;;;;;;6186106;23;20099;-73
2023/06/10 06:47:51;;;;;;;8.18;3.97;;;19.50;99.90;;;;;;6187096;23;20048;-74
2023/06/10 06:50:17;;;;;;;9.73;4.72;;;19.50;99.90;;;;;;6187173;23;20024;-73
2023/06/10 06:52:42;;;;;;;9.52;4.38;;;19.50;99.90;;;;;;6159893;23;20025;-73
2023/06/10 06:55:08;;;;;;;8.95;4.50;;;19.60;99.90;;;;;;6188094;23;20461;-73
2023/06/10 06:57:34;;;;;;;10.65;4.50;;;19.50;99.90;;;;;;6185963;23;20070;-73
2023/06/10 07:00:00;;;;;;;5.20;3.97;;;19.60;99.90;;;;;;6188308;23;20025;-73
2023/06/10 07:02:25;;;;;;;10.80;4.50;;;19.60;99.90;;;;;;6186225;23;20021;-75
2023/06/10 07:04:53;;;;;;;10.55;4.80;;;19.60;99.90;;;;;;6187516;23;20063;-73
2023/06/10 07:07:19;;;;;;;11.82;5.10;;;19.70;99.90;;;;;;6187002;23;20041;-73
2023/06/10 07:09:47;;;;;;;7.88;4.20;;;19.70;99.90;;;;;;6186197;23;20364;-73
2023/06/10 07:12:13;;;;;;;6.90;3.85;;;19.80;99.90;;;;;;6188098;23;20020;-73
2023/06/10 07:14:38;;;;;;;9.60;4.53;;;19.70;99.90;;;;;;6185873;23;20052;-73
2023/06/10 07:17:04;;;;;;;8.48;3.90;;;19.80;99.90;;;;;;6190014;23;20063;-74
2023/06/10 07:19:30;;;;;;;13.02;4.30;;;20.00;99.90;;;;;;6188295;23;20036;-73
2023/06/10 07:21:56;;;;;;;9.75;4.78;;;20.10;99.90;;;;;;6163568;23;20712;-73
2023/06/10 07:24:21;;;;;;;11.70;4.30;;;20.20;99.90;;;;;;6188488;23;20056;-74
2023/06/10 07:26:47;;;;;;;6.43;4.38;;;20.30;99.90;;;;;;6188492;23;20379;-72
2023/06/10 07:29:13;;;;;;;8.73;4.18;;;20.30;99.90;;;;;;6162987;23;20056;-73
2023/06/10 07:31:40;;;;;;;8.13;4.22;;;20.30;99.90;;;;;;6187291;23;20021;-73
2023/06/10 07:34:06;;;;;;;10.88;4.55;;;20.30;99.90;;;;;;6189902;23;20024;-74
2023/06/10 07:36:32;;;;;;;9.90;4.70;;;20.40;99.90;;;;;;6187624;23;20009;-73
2023/06/10 07:38:57;;;;;;;8.43;4.22;;;20.40;99.90;;;;;;6189636;23;20025;-73
2023/06/10 07:41:25;;;;;;;8.32;3.83;;;20.60;99.90;;;;;;6188891;23;20091;-73
2023/06/10 07:43:54;;;;;;;12.32;4.45;;;20.50;99.90;;;;;;6188421;23;20025;-73
2023/06/10 07:46:22;;;;;;;9.80;4.65;;;20.70;99.90;;;;;;6190295;23;20025;-73
2023/06/10 07:48:48;;;;;;;11.57;4.40;;;20.70;99.90;;;;;;6187821;23;20021;-73
2023/06/10 07:51:15;;;;;;;7.32;4.40;;;20.80;99.90;;;;;;6189660;23;20427;-73
2023/06/10 07:53:44;;;;;;;8.15;4.47;;;20.90;99.90;;;;;;6161199;23;20048;-74
2023/06/10 07:56:10;;;;;;;9.27;4.47;;;20.80;99.90;;;;;;6190033;23;20029;-74
2023/06/10 07:58:36;;;;;;;10.38;3.88;;;20.90;99.90;;;;;;6189761;23;20045;-73
2023/06/10 08:01:01;;;;;;;8.40;4.97;;;21.00;99.90;;;;;;6199885;23;20032;-74
2023/06/10 08:03:27;;;;;;;8.52;4.50;;;20.90;99.90;;;;;;6193957;23;20017;-74
2023/06/10 08:05:55;;;;;;;10.43;4.50;;;20.90;99.90;;;;;;6190220;23;20017;-73
2023/06/10 08:08:21;;;;;;;9.88;4.97;;;21.10;99.90;;;;;;6191274;23;20021;-74
2023/06/10 08:10:48;;;;;;;8.90;5.10;;;21.10;99.90;;;;;;6188918;23;20118;-74
2023/06/10 08:13:14;;;;;;;9.57;5.05;;;21.10;99.90;;;;;;6189540;23;20023;-73
2023/06/10 08:15:40;;;;;;;11.43;4.97;;;21.10;99.90;;;;;;6188248;23;20029;-76
2023/06/10 08:18:06;;;;;;;7.80;5.25;;;21.20;99.90;;;;;;6188588;23;20791;-72
2023/06/10 08:20:32;;;;;;;11.48;6.80;;;21.20;99.90;;;;;;6188944;23;20021;-73
2023/06/10 08:22:58;;;;;;;11.45;5.75;;;21.30;99.90;;;;;;6187313;23;20079;-72
2023/06/10 08:25:23;;;;;;;10.93;5.72;;;21.40;99.90;;;;;;6189286;23;20021;-72
2023/06/10 08:27:50;;;;;;;9.88;5.85;;;21.40;99.90;;;;;;6186985;23;20530;-72
2023/06/10 08:30:16;;;;;;;13.52;5.65;;;21.40;99.90;;;;;;6189701;23;20812;-71
2023/06/10 08:32:42;;;;;;;12.93;6.65;;;21.50;99.90;;;;;;6188057;23;20024;-72
2023/06/10 08:35:08;;;;;;;11.02;6.47;;;21.50;99.90;;;;;;6188665;23;20109;-73
2023/06/10 08:37:34;;;;;;;13.93;7.82;;;21.60;99.90;;;;;;6188484;23;20044;-72
2023/06/10 08:39:59;;;;;;;9.27;5.78;;;21.70;99.90;;;;;;6187153;23;20021;-73
2023/06/10 08:42:37;;;;;;;10.15;6.43;;;21.70;99.90;;;;;;6189367;23;20123;-73
2023/06/10 08:45:05;;;;;;;8.23;5.38;;;21.80;99.90;;;;;;6187105;23;20096;-73
2023/06/10 08:47:37;;;;;;;9.93;5.22;;;21.80;99.90;;;;;;6189026;23;20017;-73
2023/06/10 08:50:04;;;;;;;10.70;5.68;;;21.90;99.90;;;;;;6187554;23;20021;-73
2023/06/10 08:52:37;;;;;;;10.60;5.13;;;21.90;99.90;;;;;;6187599;23;20053;-72
2023/06/10 08:55:15;;;;;;;9.25;5.47;;;22.00;99.90;;;;;;6188669;23;20105;-72
2023/06/10 08:57:42;;;;;;;13.50;6.22;;;22.10;99.90;;;;;;6187029;23;20371;-73
2023/06/10 09:00:08;;;;;;;8.45;5.90;;;22.10;99.90;;;;;;6189030;23;20040;-72
2023/06/10 09:02:35;;;;;;;8.65;5.38;;;22.20;99.90;;;;;;6187709;23;20028;-71
2023/06/10 09:05:02;;;;;;;8.57;4.95;;;22.20;99.90;;;;;;6161520;23;20021;-73
2023/06/10 09:07:31;;;;;;;7.22;4.82;;;22.20;99.90;;;;;;6187838;23;20021;-72
2023/06/10 09:09:58;;;;;;;7.53;5.30;;;22.30;99.90;;;;;;6186829;23;20025;-72
2023/06/10 09:12:24;;;;;;;8.23;5.90;;;22.40;99.90;;;;;;6188998;23;20017;-74
2023/06/10 09:14:50;;;;;;;12.15;6.05;;;22.50;99.90;;;;;;6186307;23;20031;-74
2023/06/10 09:17:17;;;;;;;10.38;5.57;;;22.60;99.90;;;;;;6188994;23;20064;-73
2023/06/10 09:19:44;;;;;;;8.30;4.72;;;22.60;99.90;;;;;;6186711;23;20017;-74
2023/06/10 09:22:10;;;;;;;7.93;5.05;;;22.70;99.90;;;;;;6187937;23;20044;-73
2023/06/10 09:24:36;;;;;;;7.80;5.68;;;22.90;99.90;;;;;;6188417;23;20025;-73
2023/06/10 09:27:06;;;;;;;9.18;4.97;;;22.90;99.90;;;;;;6187100;23;20451;-73
2023/06/10 09:29:47;;;;;;;8.23;5.07;;;22.90;99.90;;;;;;6189662;23;20900;-73
2023/06/10 09:32:13;;;;;;;7.40;4.45;;;23.00;99.90;;;;;;6160628;23;20023;-72
2023/06/10 09:34:39;;;;;;;10.75;5.15;;;23.10;99.90;;;;;;6188853;23;20021;-74
2023/06/10 09:37:05;;;;;;;8.73;5.13;;;23.20;99.90;;;;;;6187905;23;20036;-74
2023/06/10 09:39:31;;;;;;;7.55;4.38;;;23.10;99.90;;;;;;6187587;23;20676;-73
2023/06/10 09:41:57;;;;;;;6.28;4.13;;;23.10;99.90;;;;;;6188833;23;20056;-73
2023/06/10 09:44:25;;;;;;;7.43;4.07;;;23.30;99.90;;;;;;6186380;23;20492;-74
2023/06/10 09:46:51;;;;;;;7.78;4.15;;;23.40;99.90;;;;;;6188094;23;20055;-74
2023/06/10 09:49:17;;;;;;;5.38;3.78;;;23.50;99.90;;;;;;6157757;23;20021;-72
2023/06/10 09:51:51;;;;;;;6.95;4.32;;;23.50;99.90;;;;;;6187803;23;20028;-73
2023/06/10 09:54:18;;;;;;;7.65;3.80;;;23.50;99.90;;;;;;6185545;23;20024;-73
2023/06/10 09:56:51;;;;;;;5.25;3.63;;;23.50;99.90;;;;;;6186849;23;20080;-73
2023/06/10 09:59:29;;;;;;;4.95;3.35;;;23.60;99.90;;;;;;6189029;23;20422;-74
2023/06/10 10:01:56;;;;;;;5.75;3.65;;;23.70;99.90;;;;;;6185563;23;20048;-73
2023/06/10 10:04:25;;;;;;;5.18;3.28;;;23.60;99.90;;;;;;6187512;23;20036;-73
2023/06/10 10:06:53;;;;;;;4.28;3.47;;;23.70;99.90;;;;;;6187109;23;20025;-73
2023/06/10 10:09:19;;;;;;;5.75;3.33;;;23.80;99.90;;;;;;6187281;23;20020;-73
2023/06/10 10:11:46;;;;;;;6.18;3.35;;;23.80;99.90;;;;;;6187809;23;20032;-74
2023/06/10 10:14:16;;;;;;;4.70;3.33;;;24.00;99.90;;;;;;6185754;23;20066;-71
2023/06/10 10:16:43;;;;;;;4.15;2.83;;;24.00;99.80;;;;;;6188069;23;20048;-73
2023/06/10 10:19:29;;;;;;;6.78;3.35;;;24.10;99.40;;;;;;6185728;23;20119;-73
2023/06/10 10:22:01;;;;;;;4.97;3.30;;;24.00;97.90;;;;;;6188123;23;20021;-74
2023/06/10 10:24:34;;;;;;;5.95;3.35;;;23.90;98.70;;;;;;6187106;23;20025;-73
2023/06/10 10:27:03;;;;;;;7.65;3.15;;;24.10;98.60;;;;;;6186756;23;20025;-73
2023/06/10 10:29:38;;;;;;;5.45;2.90;;;24.10;98.50;;;;;;6188690;23;20021;-73
2023/06/10 10:32:06;;;;;;;5.82;3.60;;;24.20;97.70;;;;;;6186601;23;20021;-73
2023/06/10 10:34:57;;;;;;;6.78;2.88;;;24.40;98.60;;;;;;6188349;23;20025;-70
2023/06/10 10:37:23;;;;;;;5.60;3.00;;;24.40;97.60;;;;;;6187974;23;20025;-73
2023/06/10 10:39:49;;;;;;;5.75;2.83;;;24.30;98.00;;;;;;6187119;23;20028;-74
2023/06/10 10:42:17;;;;;;;4.93;2.90;;;24.40;96.60;;;;;;6189779;23;20032;-74
2023/06/10 10:44:43;;;;;;;3.85;2.38;;;24.40;97.50;;;;;;6187530;23;20035;-72
2023/06/10 10:47:10;;;;;;;5.03;2.40;;;24.40;97.10;;;;;;6192013;23;20090;-72
2023/06/10 10:49:43;;;;;;;4.22;2.70;;;24.50;96.40;;;;;;6199090;23;20064;-72
2023/06/10 10:52:12;;;;;;;3.60;2.35;;;24.50;95.90;;;;;;6190643;23;20025;-71
2023/06/10 10:54:42;;;;;;;9.20;3.03;;;24.60;95.50;;;;;;6190326;23;20020;-72
2023/06/10 10:57:16;;;;;;;6.00;2.63;;;24.60;95.50;;;;;;6188575;23;20047;-70
2023/06/10 10:59:48;;;;;;;5.28;2.58;;;24.70;94.70;;;;;;6190794;23;20025;-72
2023/06/10 11:02:33;;;;;;;6.95;2.72;;;24.80;93.60;;;;;;6188404;23;20017;-71
2023/06/10 11:05:00;;;;;;;5.47;2.67;;;24.70;92.30;;;;;;6189539;23;20032;-72
2023/06/10 11:07:28;;;;;;;3.65;2.25;;;24.90;94.30;;;;;;6189794;23;20055;-71
2023/06/10 11:10:12;;;;;;;5.65;2.72;;;25.10;94.70;;;;;;6188238;23;20017;-72
2023/06/10 11:12:53;;;;;;;4.68;2.40;;;25.00;92.90;;;;;;6190103;23;20029;-72
2023/06/10 11:15:27;;;;;;;4.38;2.83;;;25.10;92.20;;;;;;6186603;23;20084;-73
2023/06/10 11:18:12;;;;;;;3.10;1.65;;;25.00;91.50;;;;;;6189569;23;20065;-73
2023/06/10 11:20:50;;;;;;;7.22;2.80;;;25.10;91.30;;;;;;6189352;23;20067;-71
2023/06/10 11:23:27;;;;;;;3.83;2.53;;;25.10;91.50;;;;;;6187714;23;20053;-73
2023/06/10 11:26:21;;;;;;;7.20;2.13;;;25.20;91.30;;;;;;6189865;23;20029;-72
2023/06/10 11:28:47;;;;;;;4.22;2.28;;;25.30;90.90;;;;;;6189849;23;20029;-72
2023/06/10 11:31:20;;;;;;;3.75;2.30;;;25.20;91.60;;;;;;6188149;23;20502;-73
2023/06/10 11:33:48;;;;;;;3.90;2.17;;;25.20;89.70;;;;;;6190157;23;20025;-72
2023/06/10 11:36:14;;;;;;;3.08;2.40;;;25.30;90.90;;;;;;6188246;23;20401;-72
2023/06/10 11:38:41;;;;;;;3.20;2.03;;;25.30;90.60;;;;;;6190317;23;20060;-72
2023/06/10 11:41:07;;;;;;;2.13;1.83;;;25.40;89.60;;;;;;6188798;23;20021;-72
2023/06/10 11:43:34;;;;;;;6.72;2.38;;;25.40;89.30;;;;;;6189418;23;20032;-73
2023/06/10 11:46:00;;;;;;;4.32;2.28;;;25.50;90.50;;;;;;6189475;23;20041;-71
2023/06/10 11:48:28;;;;;;;4.10;2.58;;;25.60;89.20;;;;;;6188212;23;20540;-72
2023/06/10 11:50:54;;;;;;;4.80;2.75;;;25.60;89.60;;;;;;6190314;23;20031;-72
2023/06/10 11:53:19;;;;;;;4.35;2.00;;;25.60;88.70;;;;;;6188090;23;20029;-72
2023/06/10 11:55:47;;;;;;;4.25;2.15;;;25.60;88.10;;;;;;6190273;23;20024;-73
2023/06/10 11:58:18;;;;;;;3.70;2.13;;;25.60;88.50;;;;;;6188551;23;20017;-72
2023/06/10 12:00:58;;;;;;;4.18;2.28;;;25.70;87.00;;;;;;6189393;23;20041;-71
2023/06/10 12:03:27;;;;;;;5.32;2.45;;;25.70;84.50;;;;;;6189968;23;20048;-72
2023/06/10 12:06:03;;;;;;;5.35;2.47;;;25.80;87.20;;;;;;6187808;23;20163;-68
2023/06/10 12:08:29;;;;;;;2.30;1.80;;;25.90;83.40;;;;;;6190320;23;20021;-68
2023/06/10 12:10:56;;;;;;;2.95;2.08;;;25.80;84.50;;;;;;6188437;23;20021;-70
2023/06/10 12:13:23;;;;;;;4.38;2.30;;;25.90;82.90;;;;;;6189679;23;20052;-73
2023/06/10 12:15:49;;;;;;;3.55;2.03;;;26.00;82.10;;;;;;6189402;23;20013;-71
2023/06/10 12:18:22;;;;;;;6.95;1.80;;;26.00;83.30;;;;;;6188184;23;20017;-71
2023/06/10 12:20:48;;;;;;;3.63;1.90;;;26.00;80.90;;;;;;6190577;23;20017;-69
2023/06/10 12:23:15;;;;;;;2.60;1.60;;;26.00;78.80;;;;;;6187623;23;20028;-70
2023/06/10 12:25:52;;;;;;;3.38;2.40;;;26.00;78.30;;;;;;6190050;23;20050;-71
2023/06/10 12:28:23;;;;;;;3.97;2.20;;;26.00;79.00;;;;;;6188561;23;20096;-71
2023/06/10 12:30:48;;;;;;;5.40;2.38;;;26.00;78.50;;;;;;6189228;23;20027;-71
2023/06/10 12:33:24;;;;;;;5.38;1.70;;;26.00;78.80;;;;;;6190278;23;20037;-71
2023/06/10 12:35:53;;;;;;;3.03;1.80;;;26.00;79.50;;;;;;6187924;23;20028;-72
2023/06/10 12:38:24;;;;;;;3.78;1.85;;;26.10;76.30;;;;;;6190400;23;20032;-72
2023/06/10 12:40:50;;;;;;;3.07;1.70;;;26.10;77.30;;;;;;6188378;23;20012;-72
2023/06/10 12:43:22;;;;;;;4.47;2.60;;;26.30;76.80;;;;;;6190132;23;20332;-72
2023/06/10 12:45:49;;;;;;;3.83;2.08;;;26.20;75.00;;;;;;6191131;23;20013;-72
2023/06/10 12:48:23;;;;;;;3.55;2.10;;;26.40;76.80;;;;;;6189341;23;20017;-72